Time;durP1;ratioP1;P1;durP2;ratioP2;P2;SDS_P1;SDS_P2;PMS_P1;PMS_P2;Temp;Humidity;BMP_temperature;BMP_pressure;BME280_temperature;BME280_humidity;BME280_pressure;Samples;Min_cycle;Max_cycle;Signal;HPM_P1;HPM_P2
2022/07/04 00:00:12;;;;;;;7.00;4.03;;;;;;;;;;5108405;28;20040;-65
2022/07/04 00:02:40;;;;;;;5.22;4.22;;;;;;;;;;5106473;28;20043;-65
2022/07/04 00:05:10;;;;;;;6.05;3.08;;;;;;;;;;5106651;28;20043;-64
2022/07/04 00:07:39;;;;;;;6.10;3.60;;;;;;;;;;5108995;28;20044;-65
2022/07/04 00:10:06;;;;;;;5.22;3.78;;;;;;;;;;5099432;28;20446;-65
2022/07/04 00:12:32;;;;;;;6.43;4.05;;;;;;;;;;5108190;28;20040;-65
2022/07/04 00:14:59;;;;;;;5.18;3.13;;;;;;;;;;5107984;28;20245;-65
2022/07/04 00:17:25;;;;;;;5.35;3.85;;;;;;;;;;5101600;28;20048;-65
2022/07/04 00:19:51;;;;;;;6.97;3.95;;;;;;;;;;5101633;28;20482;-65
2022/07/04 00:22:17;;;;;;;5.50;3.60;;;;;;;;;;5105853;28;20040;-65
2022/07/04 00:24:44;;;;;;;5.95;3.13;;;;;;;;;;5108985;28;20035;-65
2022/07/04 00:27:10;;;;;;;6.40;3.80;;;;;;;;;;5108882;28;20082;-65
2022/07/04 00:29:36;;;;;;;5.63;3.97;;;;;;;;;;5105893;28;20097;-65
2022/07/04 00:32:02;;;;;;;7.03;3.70;;;;;;;;;;5106916;28;20071;-64
2022/07/04 00:34:28;;;;;;;4.82;3.25;;;;;;;;;;5106889;28;20074;-65
2022/07/04 00:36:54;;;;;;;5.50;4.15;;;;;;;;;;5103371;28;20044;-65
2022/07/04 00:39:21;;;;;;;7.68;3.85;;;;;;;;;;5105959;28;20092;-65
2022/07/04 00:41:48;;;;;;;11.38;4.13;;;;;;;;;;5107785;28;20422;-65
2022/07/04 00:44:17;;;;;;;8.40;4.15;;;;;;;;;;5099483;28;20126;-65
2022/07/04 00:46:44;;;;;;;5.15;4.00;;;;;;;;;;5109346;28;20504;-65
2022/07/04 00:49:10;;;;;;;7.68;4.00;;;;;;;;;;5110735;28;20069;-65
2022/07/04 00:51:40;;;;;;;7.90;3.83;;;;;;;;;;5109942;28;20054;-65
2022/07/04 00:54:07;;;;;;;7.20;3.72;;;;;;;;;;5108030;28;20039;-65
2022/07/04 00:56:36;;;;;;;7.20;4.18;;;;;;;;;;5102003;28;20086;-65
2022/07/04 00:59:02;;;;;;;7.05;4.18;;;;;;;;;;5108913;28;20548;-65
2022/07/04 01:01:28;;;;;;;5.60;4.50;;;;;;;;;;5107678;28;20573;-65
2022/07/04 01:03:54;;;;;;;8.60;4.68;;;;;;;;;;5103167;28;20028;-64
2022/07/04 01:06:20;;;;;;;6.95;4.30;;;;;;;;;;5109084;28;20028;-65
2022/07/04 01:08:47;;;;;;;6.18;3.78;;;;;;;;;;5112329;28;20036;-65
2022/07/04 01:11:13;;;;;;;5.85;4.30;;;;;;;;;;5106602;28;20370;-65
2022/07/04 01:13:43;;;;;;;12.88;4.95;;;;;;;;;;5100099;28;20063;-65
2022/07/04 01:16:12;;;;;;;5.88;4.50;;;;;;;;;;5109300;28;20036;-64
2022/07/04 01:18:38;;;;;;;5.35;4.63;;;;;;;;;;5109819;28;20035;-64
2022/07/04 01:21:05;;;;;;;5.78;4.45;;;;;;;;;;5109451;28;20321;-65
2022/07/04 01:23:31;;;;;;;9.68;4.47;;;;;;;;;;5108633;28;20050;-65
2022/07/04 01:25:59;;;;;;;5.38;3.80;;;;;;;;;;5112128;28;20184;-65
2022/07/04 01:28:25;;;;;;;8.75;5.13;;;;;;;;;;5111649;28;20512;-65
2022/07/04 01:30:52;;;;;;;7.20;4.68;;;;;;;;;;5108428;28;20119;-65
2022/07/04 01:33:19;;;;;;;7.40;4.30;;;;;;;;;;5109128;28;20043;-65
2022/07/04 01:35:45;;;;;;;5.15;4.05;;;;;;;;;;5107033;28;20054;-65
2022/07/04 01:38:11;;;;;;;6.55;4.38;;;;;;;;;;5105466;28;20036;-65
2022/07/04 01:40:37;;;;;;;6.45;4.03;;;;;;;;;;5102958;27;20055;-65
2022/07/04 01:43:04;;;;;;;7.57;4.72;;;;;;;;;;5110374;27;20386;-65
2022/07/04 01:45:33;;;;;;;7.45;4.28;;;;;;;;;;5111785;27;20196;-65
2022/07/04 01:47:59;;;;;;;7.43;4.60;;;;;;;;;;5123782;27;20489;-65
2022/07/04 01:50:25;;;;;;;7.07;4.53;;;;;;;;;;5104147;27;20478;-65
2022/07/04 01:52:51;;;;;;;5.93;4.32;;;;;;;;;;5114698;27;20046;-65
2022/07/04 01:55:17;;;;;;;6.25;4.47;;;;;;;;;;5107032;27;20055;-65
2022/07/04 01:57:43;;;;;;;9.60;5.43;;;;;;;;;;5109654;27;20562;-65
2022/07/04 02:02:56;;;;;;;7.10;4.35;;;;;;;;;;5120716;27;20047;-65
2022/07/04 02:05:22;;;;;;;7.72;4.57;;;;;;;;;;5108260;28;20036;-65
2022/07/04 02:07:48;;;;;;;9.35;4.80;;;;;;;;;;5110183;28;20523;-65
2022/07/04 02:10:15;;;;;;;9.50;4.63;;;;;;;;;;5107307;28;20502;-65
2022/07/04 02:15:26;;;;;;;5.97;4.28;;;;;;;;;;5100209;28;20696;-65
2022/07/04 02:17:52;;;;;;;6.13;4.13;;;;;;;;;;5107265;28;20488;-65
2022/07/04 02:20:18;;;;;;;11.95;4.00;;;;;;;;;;5102163;28;20043;-64
2022/07/04 02:22:44;;;;;;;4.75;3.45;;;;;;;;;;5103945;28;20088;-65
2022/07/04 02:25:11;;;;;;;4.15;3.53;;;;;;;;;;5102993;28;20040;-65
2022/07/04 02:27:37;;;;;;;6.25;3.72;;;;;;;;;;5108964;28;20047;-65
2022/07/04 02:30:04;;;;;;;6.05;3.90;;;;;;;;;;5107580;28;20059;-65
2022/07/04 02:32:30;;;;;;;4.75;3.63;;;;;;;;;;5100847;28;20043;-64
2022/07/04 02:34:56;;;;;;;5.65;4.03;;;;;;;;;;5106168;28;20044;-65
2022/07/04 02:37:22;;;;;;;6.45;4.18;;;;;;;;;;5108243;28;20040;-65
2022/07/04 02:39:48;;;;;;;6.03;4.55;;;;;;;;;;5107879;28;20039;-65
2022/07/04 02:42:15;;;;;;;4.93;4.03;;;;;;;;;;5099199;28;20116;-65
2022/07/04 02:44:41;;;;;;;8.63;4.97;;;;;;;;;;5110174;28;20046;-65
2022/07/04 02:47:07;;;;;;;5.43;3.88;;;;;;;;;;5108436;28;20454;-65
2022/07/04 02:49:33;;;;;;;6.20;4.72;;;;;;;;;;5110202;28;20047;-65
2022/07/04 02:52:00;;;;;;;6.78;4.50;;;;;;;;;;5105735;28;20070;-65
2022/07/04 02:54:26;;;;;;;5.93;4.40;;;;;;;;;;5108358;28;20550;-64
2022/07/04 02:56:52;;;;;;;9.20;5.10;;;;;;;;;;5109065;28;20043;-65
2022/07/04 02:59:18;;;;;;;7.30;4.50;;;;;;;;;;5109151;28;20040;-65
2022/07/04 03:01:44;;;;;;;6.50;3.97;;;;;;;;;;5105845;28;20709;-64
2022/07/04 03:04:10;;;;;;;6.13;4.45;;;;;;;;;;5110100;28;20668;-65
2022/07/04 03:06:36;;;;;;;7.55;4.40;;;;;;;;;;5108249;28;20118;-65
2022/07/04 03:09:02;;;;;;;7.72;4.50;;;;;;;;;;5109834;28;20032;-65
2022/07/04 03:11:29;;;;;;;5.97;4.93;;;;;;;;;;5109212;28;20481;-65
2022/07/04 03:13:55;;;;;;;7.40;5.15;;;;;;;;;;5110493;28;20075;-65
2022/07/04 03:16:21;;;;;;;8.13;5.07;;;;;;;;;;5107926;28;20043;-65
2022/07/04 03:18:47;;;;;;;7.35;4.25;;;;;;;;;;5108092;28;20484;-65
2022/07/04 03:21:13;;;;;;;7.00;5.15;;;;;;;;;;5107776;28;20038;-65
2022/07/04 03:23:39;;;;;;;8.68;5.20;;;;;;;;;;5101178;28;20067;-64
2022/07/04 03:26:05;;;;;;;6.95;4.65;;;;;;;;;;5107248;28;20044;-65
2022/07/04 03:28:31;;;;;;;10.25;4.65;;;;;;;;;;5109841;28;20520;-64
2022/07/04 03:30:58;;;;;;;8.57;5.15;;;;;;;;;;5109562;28;20036;-65
2022/07/04 03:33:24;;;;;;;7.05;4.50;;;;;;;;;;5109289;28;20090;-65
2022/07/04 03:35:50;;;;;;;7.45;4.95;;;;;;;;;;5109583;28;20043;-65
2022/07/04 03:38:16;;;;;;;7.15;4.78;;;;;;;;;;5108622;28;20039;-65
2022/07/04 03:40:43;;;;;;;8.27;5.07;;;;;;;;;;5109421;28;20143;-65
2022/07/04 03:43:09;;;;;;;6.90;4.93;;;;;;;;;;5108624;28;20542;-65
2022/07/04 03:45:35;;;;;;;9.18;5.18;;;;;;;;;;5109449;28;20035;-65
2022/07/04 03:48:04;;;;;;;6.78;5.03;;;;;;;;;;5106317;28;20039;-65
2022/07/04 03:50:30;;;;;;;8.68;5.25;;;;;;;;;;5108587;28;20031;-65
2022/07/04 03:52:56;;;;;;;6.60;4.60;;;;;;;;;;5104359;28;20039;-65
2022/07/04 03:55:23;;;;;;;7.72;4.88;;;;;;;;;;5108218;28;20071;-65
2022/07/04 03:57:49;;;;;;;8.70;6.20;;;;;;;;;;5108280;28;20114;-65
2022/07/04 04:00:15;;;;;;;9.18;4.70;;;;;;;;;;5108046;28;20035;-65
2022/07/04 04:02:41;;;;;;;9.13;4.75;;;;;;;;;;5108003;28;20043;-65
2022/07/04 04:05:26;;;;;;;7.07;4.95;;;;;;;;;;5101724;28;20035;-64
2022/07/04 04:07:56;;;;;;;8.32;5.00;;;;;;;;;;5105038;28;20132;-65
2022/07/04 04:10:22;;;;;;;10.35;5.15;;;;;;;;;;5107105;28;20120;-65
2022/07/04 04:12:48;;;;;;;9.05;5.50;;;;;;;;;;5106600;28;20050;-65
2022/07/04 04:15:17;;;;;;;8.25;4.85;;;;;;;;;;5107651;28;20055;-65
2022/07/04 04:17:44;;;;;;;11.77;4.47;;;;;;;;;;5106432;28;20078;-65
2022/07/04 04:20:10;;;;;;;10.77;5.75;;;;;;;;;;5104694;28;20067;-65
2022/07/04 04:22:36;;;;;;;8.70;4.53;;;;;;;;;;5106522;28;20362;-65
2022/07/04 04:25:02;;;;;;;6.38;4.82;;;;;;;;;;5113461;28;20039;-65
2022/07/04 04:27:29;;;;;;;9.00;5.85;;;;;;;;;;5110215;28;20031;-65
2022/07/04 04:29:55;;;;;;;9.13;5.82;;;;;;;;;;5112726;28;20028;-65
2022/07/04 04:32:21;;;;;;;9.13;5.15;;;;;;;;;;5103415;28;20043;-65
2022/07/04 04:34:48;;;;;;;7.70;4.97;;;;;;;;;;5105917;28;20039;-65
2022/07/04 04:37:14;;;;;;;7.32;4.82;;;;;;;;;;5108566;28;20046;-65
2022/07/04 04:39:40;;;;;;;8.63;5.03;;;;;;;;;;5106763;27;20464;-65
2022/07/04 04:42:06;;;;;;;9.70;5.10;;;;;;;;;;5109404;28;20462;-65
2022/07/04 04:44:32;;;;;;;7.05;4.85;;;;;;;;;;5107580;28;20040;-65
2022/07/04 04:46:59;;;;;;;8.98;5.15;;;;;;;;;;5106007;28;20632;-65
2022/07/04 04:49:25;;;;;;;9.38;5.75;;;;;;;;;;5103723;28;20051;-65
2022/07/04 04:51:51;;;;;;;8.45;5.82;;;;;;;;;;5100960;28;20118;-65
2022/07/04 04:54:17;;;;;;;6.80;5.10;;;;;;;;;;5108007;28;20039;-65
2022/07/04 04:56:43;;;;;;;13.65;6.20;;;;;;;;;;5095159;28;20105;-65
2022/07/04 04:59:09;;;;;;;8.38;5.32;;;;;;;;;;5100793;28;20048;-65
2022/07/04 05:01:36;;;;;;;11.50;5.10;;;;;;;;;;5094908;28;20039;-65
2022/07/04 05:04:02;;;;;;;7.60;4.90;;;;;;;;;;5093995;28;20031;-65
2022/07/04 05:06:28;;;;;;;6.43;4.75;;;;;;;;;;5101961;27;20071;-65
2022/07/04 05:08:54;;;;;;;8.45;4.57;;;;;;;;;;5100327;27;20070;-65
2022/07/04 05:11:20;;;;;;;8.20;4.82;;;;;;;;;;5102369;28;20079;-65
2022/07/04 05:13:46;;;;;;;8.65;4.40;;;;;;;;;;5106209;28;20028;-65
2022/07/04 05:16:13;;;;;;;9.32;4.97;;;;;;;;;;5110187;27;20047;-65
2022/07/04 05:18:39;;;;;;;8.27;4.82;;;;;;;;;;5104658;28;20039;-65
2022/07/04 05:21:05;;;;;;;7.45;4.43;;;;;;;;;;5107405;28;20051;-65
2022/07/04 05:23:31;;;;;;;6.63;4.22;;;;;;;;;;5099422;28;20088;-65
2022/07/04 05:25:57;;;;;;;5.88;4.22;;;;;;;;;;5100783;27;20658;-65
2022/07/04 05:28:23;;;;;;;7.07;4.53;;;;;;;;;;5110393;27;20059;-65
2022/07/04 05:30:49;;;;;;;8.05;4.43;;;;;;;;;;5115931;27;20168;-65
2022/07/04 05:33:15;;;;;;;10.18;5.38;;;;;;;;;;5112842;27;20046;-65
2022/07/04 05:35:43;;;;;;;9.50;4.82;;;;;;;;;;5100662;28;20064;-65
2022/07/04 05:38:09;;;;;;;9.48;4.68;;;;;;;;;;5094447;28;20039;-65
2022/07/04 05:40:35;;;;;;;6.30;4.70;;;;;;;;;;5105293;27;20200;-65
2022/07/04 05:43:01;;;;;;;6.85;5.03;;;;;;;;;;5117082;27;20414;-65
2022/07/04 05:45:28;;;;;;;14.27;4.10;;;;;;;;;;5114213;27;20552;-65
2022/07/04 05:47:54;;;;;;;6.75;4.95;;;;;;;;;;5118583;27;20036;-65
2022/07/04 05:50:20;;;;;;;8.93;5.20;;;;;;;;;;5102034;27;20054;-65
2022/07/04 05:52:46;;;;;;;7.60;4.88;;;;;;;;;;5112189;27;20044;-65
2022/07/04 05:55:13;;;;;;;6.60;3.75;;;;;;;;;;5111516;27;20534;-65
2022/07/04 05:57:39;;;;;;;7.88;4.00;;;;;;;;;;5123502;27;20549;-65
2022/07/04 06:00:05;;;;;;;9.93;4.13;;;;;;;;;;5103786;27;20117;-65
2022/07/04 06:02:31;;;;;;;8.02;4.80;;;;;;;;;;5108987;27;20040;-65
2022/07/04 06:04:58;;;;;;;12.27;4.78;;;;;;;;;;5127002;27;20039;-65
2022/07/04 06:07:24;;;;;;;4.80;3.50;;;;;;;;;;5119543;27;20038;-65
2022/07/04 06:09:51;;;;;;;10.45;3.78;;;;;;;;;;5108122;27;20040;-65
2022/07/04 06:12:17;;;;;;;10.13;3.65;;;;;;;;;;5112820;27;20419;-65
2022/07/04 06:14:43;;;;;;;9.68;3.90;;;;;;;;;;5103388;28;20093;-65
2022/07/04 06:17:09;;;;;;;5.80;3.75;;;;;;;;;;5098183;27;20066;-65
2022/07/04 06:19:36;;;;;;;9.57;4.13;;;;;;;;;;5103030;28;20031;-65
2022/07/04 06:22:02;;;;;;;5.75;3.33;;;;;;;;;;5109798;28;20497;-66
2022/07/04 06:24:28;;;;;;;9.18;3.35;;;;;;;;;;5109803;28;20039;-65
2022/07/04 06:26:54;;;;;;;6.55;3.55;;;;;;;;;;5110492;28;20084;-65
2022/07/04 06:29:20;;;;;;;8.13;4.25;;;;;;;;;;5109691;28;20092;-65
2022/07/04 06:31:46;;;;;;;15.35;4.43;;;;;;;;;;5104605;28;20039;-65
2022/07/04 06:36:57;;;;;;;7.95;3.28;;;;;;;;;;5109567;27;20071;-65
2022/07/04 06:39:23;;;;;;;5.50;3.60;;;;;;;;;;5107345;27;20140;-65
2022/07/04 06:41:49;;;;;;;8.73;4.10;;;;;;;;;;5108657;27;20101;-65
2022/07/04 06:44:15;;;;;;;11.10;4.60;;;;;;;;;;5110269;27;20409;-65
2022/07/04 06:46:42;;;;;;;6.28;2.85;;;;;;;;;;5112608;27;20154;-65
2022/07/04 06:49:08;;;;;;;6.38;2.90;;;;;;;;;;5111868;27;20461;-65
2022/07/04 06:51:34;;;;;;;5.13;2.28;;;;;;;;;;5106744;27;20100;-65
2022/07/04 06:54:00;;;;;;;4.40;2.50;;;;;;;;;;5102783;28;20609;-65
2022/07/04 06:56:26;;;;;;;7.13;2.08;;;;;;;;;;5115218;27;20031;-65
2022/07/04 06:58:53;;;;;;;5.20;2.58;;;;;;;;;;5095447;28;20043;-64
2022/07/04 07:01:19;;;;;;;4.97;2.00;;;;;;;;;;5097574;28;20525;-65
2022/07/04 07:03:45;;;;;;;4.60;2.00;;;;;;;;;;5112437;27;20043;-65
2022/07/04 07:06:11;;;;;;;3.92;1.95;;;;;;;;;;5087080;27;20077;-65
2022/07/04 07:08:37;;;;;;;3.63;2.42;;;;;;;;;;5104676;27;20039;-65
2022/07/04 07:11:12;;;;;;;6.65;2.33;;;;;;;;;;5106640;27;20284;-65
2022/07/04 07:13:42;;;;;;;5.32;1.55;;;;;;;;;;5089137;28;20519;-65
2022/07/04 07:16:09;;;;;;;4.85;1.55;;;;;;;;;;5098517;28;20050;-65
2022/07/04 07:18:35;;;;;;;3.03;1.40;;;;;;;;;;5108826;27;20079;-65
2022/07/04 07:21:01;;;;;;;3.25;1.38;;;;;;;;;;5099389;27;20393;-65
2022/07/04 07:23:27;;;;;;;5.40;1.92;;;;;;;;;;5100329;28;20608;-65
2022/07/04 07:25:53;;;;;;;5.82;2.13;;;;;;;;;;5108276;27;20044;-65
2022/07/04 07:28:19;;;;;;;1.90;1.38;;;;;;;;;;5113116;27;20503;-65
2022/07/04 07:30:46;;;;;;;4.65;1.48;;;;;;;;;;5112169;27;20040;-65
2022/07/04 07:33:12;;;;;;;5.15;2.03;;;;;;;;;;5104164;27;20572;-65
2022/07/04 07:35:39;;;;;;;6.22;2.00;;;;;;;;;;5109286;27;20040;-65
2022/07/04 07:38:06;;;;;;;3.88;1.75;;;;;;;;;;5105998;28;20044;-65
2022/07/04 07:40:32;;;;;;;2.95;1.30;;;;;;;;;;5094039;28;20128;-65
2022/07/04 07:42:58;;;;;;;4.90;1.63;;;;;;;;;;5099577;28;20493;-65
2022/07/04 07:45:24;;;;;;;3.03;1.52;;;;;;;;;;5111106;27;20159;-65
2022/07/04 07:47:51;;;;;;;3.75;1.63;;;;;;;;;;5101929;28;20438;-65
2022/07/04 07:50:17;;;;;;;2.47;1.50;;;;;;;;;;5106259;27;20069;-65
2022/07/04 07:52:43;;;;;;;4.25;1.45;;;;;;;;;;5103579;27;20039;-65
2022/07/04 07:55:10;;;;;;;4.18;1.50;;;;;;;;;;5109745;27;20035;-65
2022/07/04 07:57:36;;;;;;;3.58;1.50;;;;;;;;;;5108043;28;20123;-65
2022/07/04 08:00:03;;;;;;;8.07;2.88;;;;;;;;;;5109721;27;20169;-65
2022/07/04 08:05:14;;;;;;;4.65;1.40;;;;;;;;;;5107334;27;20588;-65
2022/07/04 08:07:41;;;;;;;1.92;1.20;;;;;;;;;;5104381;28;20062;-65
2022/07/04 08:10:08;;;;;;;2.50;1.33;;;;;;;;;;5107808;28;20040;-65
2022/07/04 08:12:34;;;;;;;3.67;1.48;;;;;;;;;;5098577;27;20759;-65
2022/07/04 08:15:00;;;;;;;3.17;1.52;;;;;;;;;;5116342;27;20103;-65
2022/07/04 08:17:28;;;;;;;3.10;1.40;;;;;;;;;;5103219;28;20075;-65
2022/07/04 08:19:54;;;;;;;1.70;1.23;;;;;;;;;;5104557;28;20036;-65
2022/07/04 08:22:20;;;;;;;2.97;1.42;;;;;;;;;;5102827;28;20040;-65
2022/07/04 08:24:47;;;;;;;2.80;1.52;;;;;;;;;;5108348;28;20040;-64
2022/07/04 08:27:14;;;;;;;1.90;0.93;;;;;;;;;;5106352;28;20048;-64
2022/07/04 08:29:40;;;;;;;2.88;1.15;;;;;;;;;;5106224;28;20501;-64
2022/07/04 08:32:07;;;;;;;4.47;1.40;;;;;;;;;;5106432;28;20599;-64
2022/07/04 08:34:34;;;;;;;3.10;2.10;;;;;;;;;;5105624;28;20086;-64
2022/07/04 08:37:01;;;;;;;4.55;1.55;;;;;;;;;;5109027;28;20047;-64
2022/07/04 08:39:27;;;;;;;2.58;1.55;;;;;;;;;;5105305;28;20172;-64
2022/07/04 08:41:56;;;;;;;1.48;1.02;;;;;;;;;;5106453;28;20055;-64
2022/07/04 08:44:24;;;;;;;3.20;1.55;;;;;;;;;;5103275;28;20051;-64
2022/07/04 08:46:52;;;;;;;2.80;1.50;;;;;;;;;;5106335;28;20282;-64
2022/07/04 08:49:22;;;;;;;3.58;1.65;;;;;;;;;;5104540;28;20036;-64
2022/07/04 08:51:55;;;;;;;3.47;1.73;;;;;;;;;;5108558;28;20401;-64
2022/07/04 08:59:55;;;;;;;2.20;1.20;;;;;;;;;;5100810;28;20043;-64
2022/07/04 09:02:23;;;;;;;5.00;1.60;;;;;;;;;;5111230;28;20140;-64
2022/07/04 09:04:50;;;;;;;5.40;1.90;;;;;;;;;;5108037;28;20091;-64
2022/07/04 09:07:17;;;;;;;3.70;1.70;;;;;;;;;;5114183;27;20031;-64
2022/07/04 09:09:45;;;;;;;2.30;1.45;;;;;;;;;;5104752;27;20155;-64
2022/07/04 09:12:11;;;;;;;3.45;1.65;;;;;;;;;;5117417;27;20560;-64
2022/07/04 09:14:38;;;;;;;2.53;1.63;;;;;;;;;;5109481;27;20040;-63
2022/07/04 09:17:04;;;;;;;4.63;1.80;;;;;;;;;;5101290;28;20528;-64
2022/07/04 09:19:31;;;;;;;5.60;1.95;;;;;;;;;;5099579;28;20035;-64
2022/07/04 09:21:57;;;;;;;5.45;1.77;;;;;;;;;;5098465;28;20040;-64
2022/07/04 09:25:01;;;;;;;5.32;1.80;;;;;;;;;;5095678;27;20131;-64
2022/07/04 09:27:31;;;;;;;5.13;2.30;;;;;;;;;;5060424;28;20040;-64
2022/07/04 09:29:58;;;;;;;2.72;1.92;;;;;;;;;;5059984;28;20045;-64
2022/07/04 09:32:35;;;;;;;2.38;1.50;;;;;;;;;;5079056;28;20048;-64
2022/07/04 09:35:01;;;;;;;3.22;1.55;;;;;;;;;;5104165;27;20071;-64
2022/07/04 09:37:46;;;;;;;4.78;1.60;;;;;;;;;;5110470;27;20035;-64
2022/07/04 09:40:24;;;;;;;2.42;1.40;;;;;;;;;;5105392;27;20051;-64
2022/07/04 09:42:50;;;;;;;1.70;1.13;;;;;;;;;;5111532;27;20411;-64
2022/07/04 09:45:16;;;;;;;2.45;1.38;;;;;;;;;;5109623;27;20537;-64
2022/07/04 09:47:45;;;;;;;2.78;1.60;;;;;;;;;;5111536;27;20087;-64
2022/07/04 09:50:13;;;;;;;6.82;1.70;;;;;;;;;;5111881;27;20044;-63
2022/07/04 09:52:50;;;;;;;2.53;1.50;;;;;;;;;;5110039;27;20410;-64
2022/07/04 09:55:25;;;;;;;6.57;1.20;;;;;;;;;;5108226;27;20035;-64
2022/07/04 09:57:52;;;;;;;5.65;1.92;;;;;;;;;;5111298;27;20039;-64
2022/07/04 10:00:21;;;;;;;1.95;1.40;;;;;;;;;;5106869;27;20035;-64
2022/07/04 10:02:48;;;;;;;1.55;0.98;;;;;;;;;;5110714;27;20451;-64
2022/07/04 10:05:19;;;;;;;1.88;1.20;;;;;;;;;;5107638;27;20063;-64
2022/07/04 10:07:47;;;;;;;6.20;2.30;;;;;;;;;;5111572;27;20054;-64
2022/07/04 10:10:26;;;;;;;5.53;1.38;;;;;;;;;;5107287;27;20042;-64
2022/07/04 10:12:54;;;;;;;6.47;1.30;;;;;;;;;;5110068;27;20050;-64
2022/07/04 10:15:21;;;;;;;2.65;0.90;;;;;;;;;;5112160;27;20427;-64
2022/07/04 10:17:47;;;;;;;2.90;1.35;;;;;;;;;;5109059;27;20086;-64
2022/07/04 10:20:14;;;;;;;2.53;1.10;;;;;;;;;;5107066;28;20073;-64
2022/07/04 10:22:40;;;;;;;3.88;1.55;;;;;;;;;;5105084;28;20126;-64
2022/07/04 10:25:08;;;;;;;1.55;0.98;;;;;;;;;;5094892;28;20039;-64
2022/07/04 10:27:35;;;;;;;2.20;1.27;;;;;;;;;;5096772;28;20039;-64
2022/07/04 10:30:02;;;;;;;3.28;1.13;;;;;;;;;;5093082;28;20429;-64
2022/07/04 10:32:30;;;;;;;2.00;1.15;;;;;;;;;;5099347;28;20047;-64
2022/07/04 10:34:56;;;;;;;1.92;1.40;;;;;;;;;;5105804;27;20132;-64
2022/07/04 10:37:22;;;;;;;2.03;1.35;;;;;;;;;;5108751;27;20081;-64
2022/07/04 10:39:49;;;;;;;2.55;1.40;;;;;;;;;;5106588;27;20453;-64
2022/07/04 10:42:25;;;;;;;9.02;1.63;;;;;;;;;;5111354;27;20051;-64
2022/07/04 10:44:51;;;;;;;4.65;1.40;;;;;;;;;;5106663;27;20075;-64
2022/07/04 10:47:30;;;;;;;5.35;1.70;;;;;;;;;;5107523;27;20047;-63
2022/07/04 10:49:58;;;;;;;10.75;1.98;;;;;;;;;;5103625;27;20401;-63
2022/07/04 10:52:24;;;;;;;3.30;1.60;;;;;;;;;;5091962;28;20051;-63
2022/07/04 10:54:50;;;;;;;1.88;1.02;;;;;;;;;;5124989;27;20055;-64
2022/07/04 10:57:16;;;;;;;3.83;1.42;;;;;;;;;;5122030;27;20035;-63
2022/07/04 10:59:49;;;;;;;1.63;1.23;;;;;;;;;;5107920;27;20122;-64
2022/07/04 11:02:16;;;;;;;5.43;1.70;;;;;;;;;;5093761;28;21543;-64
2022/07/04 11:04:48;;;;;;;4.53;1.52;;;;;;;;;;5112245;27;20129;-63
2022/07/04 11:07:15;;;;;;;1.88;1.13;;;;;;;;;;5115564;27;20038;-64
2022/07/04 11:09:44;;;;;;;1.70;0.98;;;;;;;;;;5110811;27;20039;-64
2022/07/04 11:12:14;;;;;;;2.47;1.10;;;;;;;;;;5106292;27;20035;-64
2022/07/04 11:14:47;;;;;;;4.65;1.40;;;;;;;;;;5099024;27;20082;-64
2022/07/04 11:17:14;;;;;;;2.45;1.52;;;;;;;;;;5099748;28;20044;-64
2022/07/04 11:19:41;;;;;;;4.88;1.42;;;;;;;;;;5093745;28;20039;-64
2022/07/04 11:22:09;;;;;;;5.18;1.38;;;;;;;;;;5089848;28;20371;-64
2022/07/04 11:24:36;;;;;;;5.15;1.70;;;;;;;;;;5096104;28;20075;-64
2022/07/04 11:27:02;;;;;;;4.30;1.50;;;;;;;;;;5106174;27;20046;-64
2022/07/04 11:29:29;;;;;;;2.40;1.30;;;;;;;;;;5112753;27;20096;-64
2022/07/04 11:31:56;;;;;;;3.45;1.30;;;;;;;;;;5120803;27;20043;-64
2022/07/04 11:34:23;;;;;;;4.43;1.38;;;;;;;;;;5120447;27;20047;-64
2022/07/04 11:36:50;;;;;;;2.92;1.20;;;;;;;;;;5111464;27;20040;-64
2022/07/04 11:39:21;;;;;;;3.60;1.27;;;;;;;;;;5108781;28;20050;-64
2022/07/04 11:47:31;;;;;;;1.75;1.10;;;;;;;;;;5100684;28;20035;-64
2022/07/04 11:49:58;;;;;;;2.30;0.95;;;;;;;;;;5111589;27;20046;-64
2022/07/04 11:52:39;;;;;;;3.03;1.27;;;;;;;;;;5103764;28;20024;-64
2022/07/04 11:55:06;;;;;;;2.05;1.23;;;;;;;;;;5105633;28;20529;-64
2022/07/04 11:57:36;;;;;;;1.70;0.90;;;;;;;;;;5107757;28;20261;-64
2022/07/04 12:00:08;;;;;;;3.42;0.93;;;;;;;;;;5108891;27;20039;-64
2022/07/04 12:02:35;;;;;;;2.63;1.02;;;;;;;;;;5109606;27;20043;-64
2022/07/04 12:05:03;;;;;;;1.40;0.85;;;;;;;;;;5107490;27;20039;-64
2022/07/04 12:07:33;;;;;;;2.38;0.88;;;;;;;;;;5113639;27;20593;-64
2022/07/04 12:10:16;;;;;;;2.60;0.80;;;;;;;;;;5108502;28;20485;-64
2022/07/04 12:12:54;;;;;;;1.88;1.00;;;;;;;;;;5104846;28;20446;-64
2022/07/04 12:15:21;;;;;;;2.85;0.93;;;;;;;;;;5105435;28;20035;-64
2022/07/04 12:17:50;;;;;;;1.33;0.70;;;;;;;;;;5107386;28;20126;-64
2022/07/04 12:20:20;;;;;;;2.33;0.80;;;;;;;;;;5107110;28;20031;-64
2022/07/04 12:22:57;;;;;;;1.80;0.88;;;;;;;;;;5104692;28;20035;-64
2022/07/04 12:25:39;;;;;;;2.38;0.70;;;;;;;;;;5105190;28;20036;-64
2022/07/04 12:28:05;;;;;;;;;;;;;;;;;;5105848;28;20115;-64
2022/07/04 12:30:33;;;;;;;1.60;0.70;;;;;;;;;;5108219;28;19916;-64
2022/07/04 12:33:03;;;;;;;2.92;1.55;;;;;;;;;;5106153;28;20039;-64
2022/07/04 12:35:36;;;;;;;2.03;1.02;;;;;;;;;;5107792;28;20531;-64
2022/07/04 12:38:13;;;;;;;2.53;1.10;;;;;;;;;;5104721;28;20039;-64
2022/07/04 12:40:51;;;;;;;2.00;1.02;;;;;;;;;;5094932;28;20051;-64
2022/07/04 12:43:18;;;;;;;3.72;0.88;;;;;;;;;;5108895;28;20046;-64
2022/07/04 12:45:45;;;;;;;2.65;1.15;;;;;;;;;;5105882;28;20046;-64
2022/07/04 12:48:19;;;;;;;1.63;0.90;;;;;;;;;;5106108;28;20035;-64
2022/07/04 12:50:45;;;;;;;4.35;0.85;;;;;;;;;;5110906;28;20035;-64
2022/07/04 12:53:12;;;;;;;3.20;0.77;;;;;;;;;;5109936;28;20263;-64
2022/07/04 12:55:40;;;;;;;2.90;1.00;;;;;;;;;;5109251;28;20281;-64
2022/07/04 12:58:07;;;;;;;11.23;1.38;;;;;;;;;;5114889;27;20234;-64
2022/07/04 13:00:33;;;;;;;1.92;1.05;;;;;;;;;;5109919;28;20535;-64
2022/07/04 13:02:59;;;;;;;1.15;0.93;;;;;;;;;;5109659;28;20043;-64
2022/07/04 13:05:25;;;;;;;2.08;0.77;;;;;;;;;;5099007;28;20426;-64
2022/07/04 13:07:51;;;;;;;1.17;0.85;;;;;;;;;;5104074;28;20346;-64
2022/07/04 13:10:17;;;;;;;1.85;0.82;;;;;;;;;;5107330;28;20250;-64
2022/07/04 13:12:44;;;;;;;5.70;1.40;;;;;;;;;;5110387;28;20082;-64
2022/07/04 13:15:11;;;;;;;1.83;0.80;;;;;;;;;;5110000;28;20485;-64
2022/07/04 13:17:38;;;;;;;3.17;0.90;;;;;;;;;;5102235;28;20046;-64
2022/07/04 13:20:05;;;;;;;4.10;1.00;;;;;;;;;;5108102;28;20038;-64
2022/07/04 13:22:31;;;;;;;2.17;0.75;;;;;;;;;;5111587;28;20090;-65
2022/07/04 13:24:59;;;;;;;2.30;1.05;;;;;;;;;;5102653;28;20068;-64
2022/07/04 13:27:26;;;;;;;3.25;1.17;;;;;;;;;;5106069;28;20047;-64
2022/07/04 13:29:52;;;;;;;1.95;1.00;;;;;;;;;;5108754;27;20027;-65
2022/07/04 13:32:18;;;;;;;3.03;1.05;;;;;;;;;;5110039;28;20143;-64
2022/07/04 13:34:44;;;;;;;2.05;1.08;;;;;;;;;;5102716;27;20054;-64
2022/07/04 13:37:10;;;;;;;1.52;0.57;;;;;;;;;;5100211;28;20054;-64
2022/07/04 13:39:36;;;;;;;3.47;1.08;;;;;;;;;;5112031;27;20039;-64
2022/07/04 13:42:03;;;;;;;2.50;1.17;;;;;;;;;;5109730;28;20063;-64
2022/07/04 13:44:30;;;;;;;2.17;0.90;;;;;;;;;;5105152;27;20027;-64
2022/07/04 13:46:58;;;;;;;2.35;0.98;;;;;;;;;;5111582;27;20131;-64
2022/07/04 13:49:24;;;;;;;1.13;0.73;;;;;;;;;;5107405;28;20040;-64
2022/07/04 13:51:50;;;;;;;2.47;1.10;;;;;;;;;;5110574;27;20491;-64
2022/07/04 13:54:16;;;;;;;1.65;0.70;;;;;;;;;;5106656;28;20036;-64
2022/07/04 13:56:43;;;;;;;1.65;0.93;;;;;;;;;;5109183;28;20405;-64
2022/07/04 13:59:09;;;;;;;1.08;0.95;;;;;;;;;;5108671;28;20035;-64
2022/07/04 14:01:36;;;;;;;1.40;0.93;;;;;;;;;;5106521;27;20288;-64
2022/07/04 14:04:02;;;;;;;2.35;0.50;;;;;;;;;;5104646;28;20051;-64
2022/07/04 14:06:28;;;;;;;1.58;1.00;;;;;;;;;;5107661;28;20038;-64
2022/07/04 14:08:54;;;;;;;2.90;0.95;;;;;;;;;;5109634;28;20400;-64
2022/07/04 14:11:21;;;;;;;3.60;1.38;;;;;;;;;;5109148;28;20143;-64
2022/07/04 14:13:47;;;;;;;1.77;0.90;;;;;;;;;;5110061;28;20115;-64
2022/07/04 14:16:13;;;;;;;1.95;0.98;;;;;;;;;;5107075;28;20043;-64
2022/07/04 14:18:40;;;;;;;4.03;0.82;;;;;;;;;;5108669;28;20070;-65
2022/07/04 14:21:06;;;;;;;2.78;1.67;;;;;;;;;;5106315;28;20070;-64
2022/07/04 14:23:41;;;;;;;2.80;1.27;;;;;;;;;;5107512;28;20530;-64
2022/07/04 14:26:12;;;;;;;2.00;1.30;;;;;;;;;;5107160;28;20043;-64
2022/07/04 14:28:39;;;;;;;1.77;0.88;;;;;;;;;;5085822;28;20031;-64
2022/07/04 14:31:05;;;;;;;4.15;0.85;;;;;;;;;;5108725;28;20040;-64
2022/07/04 14:33:32;;;;;;;1.40;0.90;;;;;;;;;;5107659;28;20046;-64
2022/07/04 14:35:59;;;;;;;2.47;1.00;;;;;;;;;;5108014;28;20075;-64
2022/07/04 14:38:26;;;;;;;2.03;0.85;;;;;;;;;;5107189;28;20035;-64
2022/07/04 14:40:52;;;;;;;1.35;0.75;;;;;;;;;;5106196;28;20130;-64
2022/07/04 14:43:18;;;;;;;2.60;0.77;;;;;;;;;;5108280;28;20551;-64
2022/07/04 14:45:46;;;;;;;3.03;1.88;;;;;;;;;;5108068;28;20095;-64
2022/07/04 14:48:13;;;;;;;2.53;0.70;;;;;;;;;;5107817;28;20043;-64
2022/07/04 14:50:40;;;;;;;1.98;0.80;;;;;;;;;;5108815;28;20027;-64
2022/07/04 14:53:06;;;;;;;0.98;0.77;;;;;;;;;;5108412;28;20039;-64
2022/07/04 14:55:32;;;;;;;1.48;0.82;;;;;;;;;;5107038;28;20295;-64
2022/07/04 14:57:58;;;;;;;2.53;0.93;;;;;;;;;;5106531;28;20496;-64
2022/07/04 15:00:24;;;;;;;3.30;1.13;;;;;;;;;;5107921;28;20082;-64
2022/07/04 15:02:50;;;;;;;1.95;0.75;;;;;;;;;;5111302;27;20577;-64
2022/07/04 15:05:17;;;;;;;1.95;1.08;;;;;;;;;;5111081;27;20028;-64